Time;durP1;ratioP1;P1;durP2;ratioP2;P2;SDS_P1;SDS_P2;PMS_P1;PMS_P2;Temp;Humidity;BMP_temperature;BMP_pressure;BME280_temperature;BME280_humidity;BME280_pressure;Samples;Min_cycle;Max_cycle;Signal;HPM_P1;HPM_P2
2023/03/15 00:00:47;;;;;;;1.63;0.90;;;;;;;;;;5031067;28;20025;-74
2023/03/15 00:03:14;;;;;;;1.30;1.20;;;;;;;;;;5031590;28;20053;-74
2023/03/15 00:05:43;;;;;;;4.82;1.33;;;;;;;;;;5031432;28;20033;-74
2023/03/15 00:08:11;;;;;;;3.85;1.42;;;;;;;;;;5031567;28;20091;-74
2023/03/15 00:10:40;;;;;;;1.25;1.10;;;;;;;;;;5030367;28;20076;-74
2023/03/15 00:13:10;;;;;;;3.63;1.67;;;;;;;;;;5031823;28;20022;-74
2023/03/15 00:15:40;;;;;;;;;;;;;;;;;;5031771;28;20029;-74
2023/03/15 00:18:06;;;;;;;1.42;1.00;;;;;;;;;;5030558;28;19905;-74
2023/03/15 00:20:32;;;;;;;2.97;1.85;;;;;;;;;;5031357;28;20037;-74
2023/03/15 00:22:58;;;;;;;1.30;1.20;;;;;;;;;;5029522;28;20017;-74
2023/03/15 00:25:24;;;;;;;1.75;1.30;;;;;;;;;;5029965;28;20072;-74
2023/03/15 00:27:50;;;;;;;3.75;1.45;;;;;;;;;;5031064;28;20021;-74
2023/03/15 00:30:16;;;;;;;2.47;1.10;;;;;;;;;;5030892;28;20506;-73
2023/03/15 00:32:42;;;;;;;1.30;1.00;;;;;;;;;;5031492;28;20152;-74
2023/03/15 00:35:11;;;;;;;1.73;1.38;;;;;;;;;;5031194;28;20081;-73
2023/03/15 00:37:37;;;;;;;3.65;1.58;;;;;;;;;;5031243;28;20037;-74
2023/03/15 00:40:05;;;;;;;3.15;1.63;;;;;;;;;;5031473;28;20079;-74
2023/03/15 00:42:32;;;;;;;2.58;1.30;;;;;;;;;;5031115;28;20351;-74
2023/03/15 00:44:58;;;;;;;3.30;2.20;;;;;;;;;;5029329;28;20544;-74
2023/03/15 00:47:24;;;;;;;1.63;1.50;;;;;;;;;;5030335;28;20049;-74
2023/03/15 00:49:50;;;;;;;2.15;1.35;;;;;;;;;;5028419;28;20029;-74
2023/03/15 00:52:17;;;;;;;2.97;1.77;;;;;;;;;;5030224;28;20272;-73
2023/03/15 00:54:43;;;;;;;2.67;1.75;;;;;;;;;;5030022;28;20029;-74
2023/03/15 00:57:09;;;;;;;5.43;1.42;;;;;;;;;;5029972;28;20406;-74
2023/03/15 00:59:36;;;;;;;3.70;1.70;;;;;;;;;;5030008;28;20045;-73
2023/03/15 01:02:03;;;;;;;3.53;1.65;;;;;;;;;;5028151;28;20037;-74
2023/03/15 01:04:30;;;;;;;3.05;1.45;;;;;;;;;;5028479;28;20096;-74
2023/03/15 01:06:56;;;;;;;1.63;1.50;;;;;;;;;;5029917;28;20128;-73
2023/03/15 01:09:22;;;;;;;5.80;1.80;;;;;;;;;;5029562;28;20029;-74
2023/03/15 01:11:48;;;;;;;2.03;1.83;;;;;;;;;;5029272;28;20033;-74
2023/03/15 01:14:14;;;;;;;5.05;1.45;;;;;;;;;;5028101;28;20026;-74
2023/03/15 01:16:40;;;;;;;2.40;1.70;;;;;;;;;;5029511;28;20112;-74
2023/03/15 01:19:06;;;;;;;4.75;2.35;;;;;;;;;;5030080;28;20076;-74
2023/03/15 01:21:32;;;;;;;5.40;1.75;;;;;;;;;;5029701;28;20033;-74
2023/03/15 01:23:58;;;;;;;2.90;1.75;;;;;;;;;;5029543;28;20478;-74
2023/03/15 01:26:25;;;;;;;3.13;1.67;;;;;;;;;;5029311;28;20029;-74
2023/03/15 01:28:51;;;;;;;3.50;1.65;;;;;;;;;;5029273;28;20042;-74
2023/03/15 01:31:19;;;;;;;2.70;2.00;;;;;;;;;;5029346;28;20030;-74
2023/03/15 01:33:45;;;;;;;9.90;1.83;;;;;;;;;;5029813;28;20030;-74
2023/03/15 01:36:11;;;;;;;5.32;2.42;;;;;;;;;;5029308;28;20393;-74
2023/03/15 01:38:37;;;;;;;4.85;3.10;;;;;;;;;;5029387;28;20044;-74
2023/03/15 01:41:04;;;;;;;3.70;2.08;;;;;;;;;;5029294;28;20025;-74
2023/03/15 01:43:30;;;;;;;1.95;1.55;;;;;;;;;;5029412;28;20071;-74
2023/03/15 01:46:02;;;;;;;4.47;1.80;;;;;;;;;;5027877;28;20025;-74
2023/03/15 01:48:45;;;;;;;1.95;1.70;;;;;;;;;;5029219;28;20033;-74
2023/03/15 01:51:15;;;;;;;4.82;2.13;;;;;;;;;;5029844;28;20029;-74
2023/03/15 01:53:42;;;;;;;2.38;2.17;;;;;;;;;;5029404;28;20018;-74
2023/03/15 01:56:09;;;;;;;9.18;2.75;;;;;;;;;;5028090;28;20367;-74
2023/03/15 01:58:39;;;;;;;3.95;2.13;;;;;;;;;;5029386;28;20512;-74
2023/03/15 02:01:05;;;;;;;2.65;1.83;;;;;;;;;;5028055;28;20017;-74
2023/03/15 02:03:34;;;;;;;8.00;2.17;;;;;;;;;;5029749;28;20025;-74
2023/03/15 02:06:04;;;;;;;4.38;2.00;;;;;;;;;;5029989;28;20018;-74
2023/03/15 02:08:31;;;;;;;;;;;;;;;;;;5028456;28;20072;-74
2023/03/15 02:10:57;;;;;;;5.05;1.95;;;;;;;;;;5029435;28;19905;-73
2023/03/15 02:13:24;;;;;;;6.85;2.00;;;;;;;;;;5031484;28;20104;-74
2023/03/15 02:15:52;;;;;;;2.78;1.73;;;;;;;;;;5032963;28;20041;-74
2023/03/15 02:18:18;;;;;;;5.03;2.17;;;;;;;;;;5031678;28;20460;-74
2023/03/15 02:20:44;;;;;;;3.75;2.17;;;;;;;;;;5032889;28;20061;-74
2023/03/15 02:23:12;;;;;;;1.98;1.73;;;;;;;;;;5032530;28;20065;-74
2023/03/15 02:25:54;;;;;;;3.47;2.58;;;;;;;;;;5031141;28;20473;-74
2023/03/15 02:28:20;;;;;;;3.70;2.10;;;;;;;;;;5032543;28;20067;-74
2023/03/15 02:30:46;;;;;;;4.95;2.40;;;;;;;;;;5032639;28;20485;-74
2023/03/15 02:33:18;;;;;;;3.08;2.05;;;;;;;;;;5033415;28;20516;-74
2023/03/15 02:35:44;;;;;;;2.30;2.10;;;;;;;;;;5033281;28;20041;-74
2023/03/15 02:38:10;;;;;;;3.03;1.90;;;;;;;;;;5033282;28;20287;-74
2023/03/15 02:40:37;;;;;;;4.97;2.10;;;;;;;;;;5033408;28;20341;-74
2023/03/15 02:43:06;;;;;;;3.65;2.25;;;;;;;;;;5033392;28;20018;-74
2023/03/15 02:45:33;;;;;;;2.47;2.10;;;;;;;;;;5032086;28;20056;-74
2023/03/15 02:47:59;;;;;;;5.40;2.08;;;;;;;;;;5032274;28;20548;-75
2023/03/15 02:50:25;;;;;;;2.65;1.95;;;;;;;;;;5032281;28;20025;-74
2023/03/15 02:52:51;;;;;;;2.95;2.28;;;;;;;;;;5032384;28;20079;-74
2023/03/15 02:55:18;;;;;;;3.05;2.03;;;;;;;;;;5032193;28;20474;-74
2023/03/15 02:57:44;;;;;;;5.25;2.28;;;;;;;;;;5031966;28;20187;-74
2023/03/15 03:00:14;;;;;;;3.13;1.83;;;;;;;;;;5032121;28;20025;-74
2023/03/15 03:02:44;;;;;;;3.45;1.90;;;;;;;;;;5032642;28;20029;-74
2023/03/15 03:05:11;;;;;;;8.15;3.00;;;;;;;;;;5032375;28;20021;-74
2023/03/15 03:07:41;;;;;;;4.80;2.90;;;;;;;;;;5031985;28;20061;-74
2023/03/15 03:10:09;;;;;;;4.57;2.03;;;;;;;;;;5031824;28;20029;-74
2023/03/15 03:12:35;;;;;;;4.63;2.30;;;;;;;;;;5031999;28;20025;-74
2023/03/15 03:15:03;;;;;;;6.07;2.20;;;;;;;;;;5031788;28;20033;-74
2023/03/15 03:17:29;;;;;;;7.03;3.00;;;;;;;;;;5031571;28;20061;-74
2023/03/15 03:19:55;;;;;;;2.85;2.05;;;;;;;;;;5031480;28;20051;-74
2023/03/15 03:22:23;;;;;;;8.60;2.25;;;;;;;;;;5031499;28;20038;-74
2023/03/15 03:24:49;;;;;;;5.63;2.60;;;;;;;;;;5031430;28;20492;-74
2023/03/15 03:27:16;;;;;;;8.25;2.50;;;;;;;;;;5031555;28;20037;-74
2023/03/15 03:29:42;;;;;;;7.97;2.83;;;;;;;;;;5031510;28;20058;-74
2023/03/15 03:32:08;;;;;;;3.30;2.70;;;;;;;;;;5031437;28;20104;-74
2023/03/15 03:34:35;;;;;;;6.18;2.60;;;;;;;;;;5031408;28;20022;-74
2023/03/15 03:37:01;;;;;;;6.65;2.83;;;;;;;;;;5031489;28;20068;-74
2023/03/15 03:39:27;;;;;;;5.50;2.40;;;;;;;;;;5031428;28;20050;-74
2023/03/15 03:41:53;;;;;;;4.53;2.40;;;;;;;;;;5031297;28;20037;-74
2023/03/15 03:44:19;;;;;;;5.70;2.65;;;;;;;;;;5031445;28;20035;-74
2023/03/15 03:46:45;;;;;;;7.63;2.88;;;;;;;;;;5031335;28;20025;-74
2023/03/15 03:49:13;;;;;;;4.60;2.67;;;;;;;;;;5031723;28;20028;-74
2023/03/15 03:51:40;;;;;;;4.35;3.17;;;;;;;;;;5032279;28;20431;-74
2023/03/15 03:54:06;;;;;;;4.60;2.80;;;;;;;;;;5032219;28;20378;-74
2023/03/15 03:56:32;;;;;;;4.03;2.47;;;;;;;;;;5031748;28;20034;-74
2023/03/15 03:58:58;;;;;;;4.43;2.60;;;;;;;;;;5032016;28;20430;-74
2023/03/15 04:01:24;;;;;;;7.28;2.47;;;;;;;;;;5031724;28;20034;-74
2023/03/15 04:03:51;;;;;;;5.40;3.05;;;;;;;;;;5031844;28;20028;-74
2023/03/15 04:06:17;;;;;;;3.88;2.92;;;;;;;;;;5030897;28;20026;-74
2023/03/15 04:08:43;;;;;;;6.07;2.83;;;;;;;;;;5030901;28;20120;-74
2023/03/15 04:11:09;;;;;;;4.30;2.40;;;;;;;;;;5030304;28;20132;-74
2023/03/15 04:13:35;;;;;;;4.50;2.80;;;;;;;;;;5030597;28;20068;-74
2023/03/15 04:16:02;;;;;;;6.00;2.58;;;;;;;;;;5031108;28;20029;-74
2023/03/15 04:18:28;;;;;;;5.03;2.53;;;;;;;;;;5031155;28;20104;-75
2023/03/15 04:20:54;;;;;;;5.07;2.65;;;;;;;;;;5031177;28;20028;-74
2023/03/15 04:23:22;;;;;;;5.00;2.60;;;;;;;;;;5031058;28;20434;-73
2023/03/15 04:25:48;;;;;;;4.40;2.45;;;;;;;;;;5030244;28;20033;-74
2023/03/15 04:28:15;;;;;;;5.40;2.33;;;;;;;;;;5030049;28;20592;-74
2023/03/15 04:30:43;;;;;;;4.78;2.38;;;;;;;;;;5029167;28;20025;-74
2023/03/15 04:33:09;;;;;;;3.80;2.03;;;;;;;;;;5030581;28;20094;-74
2023/03/15 04:35:37;;;;;;;4.70;3.08;;;;;;;;;;5029634;28;20080;-74
2023/03/15 04:38:04;;;;;;;8.45;2.05;;;;;;;;;;5028797;28;20029;-74
2023/03/15 04:40:33;;;;;;;4.03;1.77;;;;;;;;;;5030211;28;20033;-74
2023/03/15 04:43:00;;;;;;;6.47;2.13;;;;;;;;;;5028362;28;20595;-74
2023/03/15 04:45:27;;;;;;;4.38;2.15;;;;;;;;;;5030268;28;20041;-74
2023/03/15 04:47:53;;;;;;;7.20;2.67;;;;;;;;;;5029950;28;20478;-74
2023/03/15 04:50:19;;;;;;;3.50;2.35;;;;;;;;;;5029991;28;20041;-74
2023/03/15 04:52:45;;;;;;;4.03;2.47;;;;;;;;;;5028695;28;20646;-74
2023/03/15 04:55:12;;;;;;;4.22;2.42;;;;;;;;;;5030177;28;20116;-74
2023/03/15 04:57:39;;;;;;;3.75;2.83;;;;;;;;;;5029734;28;20029;-73
2023/03/15 05:00:09;;;;;;;6.93;2.70;;;;;;;;;;5028664;28;20382;-74
2023/03/15 05:02:40;;;;;;;3.88;2.33;;;;;;;;;;5029978;28;20037;-74
2023/03/15 05:05:07;;;;;;;4.97;2.17;;;;;;;;;;5030293;28;20064;-74
2023/03/15 05:07:34;;;;;;;3.72;2.50;;;;;;;;;;5029755;28;20481;-74
2023/03/15 05:10:00;;;;;;;4.03;2.35;;;;;;;;;;5028371;28;20424;-74
2023/03/15 05:12:26;;;;;;;3.42;2.15;;;;;;;;;;5028256;28;20021;-74
2023/03/15 05:14:52;;;;;;;2.55;1.67;;;;;;;;;;5031001;28;20029;-74
2023/03/15 05:17:18;;;;;;;4.15;2.30;;;;;;;;;;5036540;28;20099;-74
2023/03/15 05:19:45;;;;;;;3.00;1.98;;;;;;;;;;5040956;28;20029;-74
2023/03/15 05:22:11;;;;;;;4.97;2.33;;;;;;;;;;5041271;28;20115;-75
2023/03/15 05:24:40;;;;;;;4.63;1.98;;;;;;;;;;5041147;28;20312;-74
2023/03/15 05:27:08;;;;;;;3.42;2.10;;;;;;;;;;5040583;28;20021;-74
2023/03/15 05:29:34;;;;;;;3.15;1.55;;;;;;;;;;5039943;28;20068;-74
2023/03/15 05:32:03;;;;;;;7.97;2.42;;;;;;;;;;5039577;28;20427;-74
2023/03/15 05:34:31;;;;;;;6.05;2.13;;;;;;;;;;5032957;28;20014;-74
2023/03/15 05:36:57;;;;;;;5.03;2.42;;;;;;;;;;5029158;28;20048;-76
2023/03/15 05:39:23;;;;;;;4.40;2.45;;;;;;;;;;5031350;28;20029;-74
2023/03/15 05:41:49;;;;;;;4.43;2.00;;;;;;;;;;5029592;28;20030;-74
2023/03/15 05:44:15;;;;;;;5.35;1.95;;;;;;;;;;5030802;28;20147;-75
2023/03/15 05:46:41;;;;;;;6.30;2.70;;;;;;;;;;5029356;28;20540;-74
2023/03/15 05:49:07;;;;;;;13.05;2.80;;;;;;;;;;5032572;28;20469;-74
2023/03/15 05:51:34;;;;;;;5.97;1.70;;;;;;;;;;5034185;28;20068;-74
2023/03/15 05:54:00;;;;;;;2.38;1.92;;;;;;;;;;5033779;28;20032;-74
2023/03/15 05:56:26;;;;;;;4.03;2.22;;;;;;;;;;5033574;28;20038;-74
2023/03/15 05:58:52;;;;;;;3.88;3.05;;;;;;;;;;5032216;28;20033;-74
2023/03/15 06:01:18;;;;;;;2.78;2.05;;;;;;;;;;5033481;28;20088;-74
2023/03/15 06:03:44;;;;;;;3.80;2.15;;;;;;;;;;5032752;28;20037;-74
2023/03/15 06:06:10;;;;;;;4.22;1.70;;;;;;;;;;5033892;28;20386;-74
2023/03/15 06:08:36;;;;;;;3.35;2.55;;;;;;;;;;5032645;28;20029;-75
2023/03/15 06:11:01;;;;;;;7.45;2.75;;;;;;;;;;5033996;28;20026;-74
2023/03/15 06:13:28;;;;;;;2.75;1.65;;;;;;;;;;5034106;28;20033;-74
2023/03/15 06:15:54;;;;;;;4.28;2.10;;;;;;;;;;5031789;28;20029;-74
2023/03/15 06:18:20;;;;;;;5.03;2.88;;;;;;;;;;5032997;28;20017;-74
2023/03/15 06:20:46;;;;;;;4.70;3.10;;;;;;;;;;5032845;28;20021;-74
2023/03/15 06:23:12;;;;;;;5.22;3.08;;;;;;;;;;5033100;28;20028;-73
2023/03/15 06:25:38;;;;;;;3.65;1.92;;;;;;;;;;5032708;28;20374;-73
2023/03/15 06:28:04;;;;;;;39.33;12.80;;;;;;;;;;5031215;28;20076;-75
2023/03/15 06:30:31;;;;;;;25.73;10.35;;;;;;;;;;5032725;28;20064;-74
2023/03/15 06:32:57;;;;;;;8.65;4.38;;;;;;;;;;5033109;28;20025;-75
2023/03/15 06:35:23;;;;;;;9.98;4.07;;;;;;;;;;5032559;28;20036;-75
2023/03/15 06:37:51;;;;;;;9.25;3.53;;;;;;;;;;5032621;28;20047;-75
2023/03/15 06:40:17;;;;;;;6.83;3.20;;;;;;;;;;5032384;28;20351;-75
2023/03/15 06:42:43;;;;;;;4.75;2.92;;;;;;;;;;5032032;28;20470;-75
2023/03/15 06:45:10;;;;;;;9.00;2.22;;;;;;;;;;5032512;28;20109;-74
2023/03/15 06:47:36;;;;;;;4.35;2.90;;;;;;;;;;5032288;28;20083;-75
2023/03/15 06:50:02;;;;;;;5.93;2.50;;;;;;;;;;5032153;28;20033;-73
2023/03/15 06:52:28;;;;;;;3.63;2.72;;;;;;;;;;5032292;28;20558;-75
2023/03/15 06:54:54;;;;;;;5.35;2.47;;;;;;;;;;5032220;28;20105;-75
2023/03/15 06:57:20;;;;;;;5.65;2.22;;;;;;;;;;5030687;28;20112;-74
2023/03/15 06:59:46;;;;;;;3.03;2.33;;;;;;;;;;5049942;28;20457;-74
2023/03/15 07:02:13;;;;;;;4.50;3.72;;;;;;;;;;5045278;28;20021;-73
2023/03/15 07:04:39;;;;;;;9.48;3.58;;;;;;;;;;5031012;28;20017;-74
2023/03/15 07:07:05;;;;;;;6.50;2.83;;;;;;;;;;5029364;28;20452;-74
2023/03/15 07:09:32;;;;;;;6.55;3.33;;;;;;;;;;5031448;28;20069;-74
2023/03/15 07:11:58;;;;;;;3.35;2.65;;;;;;;;;;5030288;28;20025;-74
2023/03/15 07:14:23;;;;;;;3.72;2.67;;;;;;;;;;5029837;28;20040;-73
2023/03/15 07:16:49;;;;;;;3.92;2.45;;;;;;;;;;5027814;28;20405;-73
2023/03/15 07:19:15;;;;;;;9.13;3.33;;;;;;;;;;5026879;28;20040;-74
2023/03/15 07:21:41;;;;;;;4.13;2.22;;;;;;;;;;5027166;28;20168;-75
2023/03/15 07:24:07;;;;;;;1.88;1.67;;;;;;;;;;5030938;28;20108;-74
2023/03/15 07:26:33;;;;;;;3.15;1.60;;;;;;;;;;5031949;28;20116;-75
2023/03/15 07:28:59;;;;;;;5.00;2.35;;;;;;;;;;5028548;28;20133;-74
2023/03/15 07:31:25;;;;;;;6.85;2.42;;;;;;;;;;5028725;28;20041;-75
2023/03/15 07:33:52;;;;;;;2.90;2.10;;;;;;;;;;5028780;28;20026;-75
2023/03/15 07:36:17;;;;;;;2.78;2.28;;;;;;;;;;5027850;28;20041;-75
2023/03/15 07:38:43;;;;;;;1.48;1.15;;;;;;;;;;5028905;28;20405;-75
2023/03/15 07:41:10;;;;;;;1.65;1.20;;;;;;;;;;5027587;28;20034;-74
2023/03/15 07:43:36;;;;;;;2.97;1.17;;;;;;;;;;5027465;28;20029;-74
2023/03/15 07:46:02;;;;;;;1.75;1.35;;;;;;;;;;5027805;28;20039;-74
2023/03/15 07:48:28;;;;;;;1.23;1.10;;;;;;;;;;5029639;28;20106;-74
2023/03/15 07:50:54;;;;;;;1.50;1.40;;;;;;;;;;5029707;28;20022;-75
2023/03/15 07:53:21;;;;;;;1.98;1.23;;;;;;;;;;5025721;28;20482;-75
2023/03/15 07:55:47;;;;;;;1.20;0.85;;;;;;;;;;5025477;28;20029;-74
2023/03/15 07:58:13;;;;;;;0.93;0.75;;;;;;;;;;5029361;28;20037;-74
2023/03/15 08:00:39;;;;;;;2.05;1.63;;;;;;;;;;5027726;28;20017;-74
2023/03/15 08:03:06;;;;;;;1.50;1.40;;;;;;;;;;5028620;28;20027;-74
2023/03/15 08:05:32;;;;;;;1.92;1.00;;;;;;;;;;5029231;28;20104;-75
2023/03/15 08:07:59;;;;;;;1.40;1.02;;;;;;;;;;5027694;28;20041;-75
2023/03/15 08:10:25;;;;;;;0.82;0.82;;;;;;;;;;5026884;28;20122;-74
2023/03/15 08:12:51;;;;;;;0.88;0.88;;;;;;;;;;5028418;28;20108;-75
2023/03/15 08:15:17;;;;;;;3.83;1.42;;;;;;;;;;5027511;28;20052;-74
2023/03/15 08:17:43;;;;;;;2.22;1.00;;;;;;;;;;5026903;28;20033;-74
2023/03/15 08:20:16;;;;;;;2.90;1.17;;;;;;;;;;5025693;28;20026;-76
2023/03/15 08:22:45;;;;;;;3.85;0.82;;;;;;;;;;5026442;28;20041;-75
2023/03/15 08:25:12;;;;;;;1.38;1.20;;;;;;;;;;5026732;28;20028;-75
2023/03/15 08:27:38;;;;;;;2.47;1.60;;;;;;;;;;5026076;28;20041;-75
2023/03/15 08:30:04;;;;;;;3.42;1.30;;;;;;;;;;5027236;28;20047;-74
2023/03/15 08:32:31;;;;;;;0.90;0.90;;;;;;;;;;5026253;28;20025;-75
2023/03/15 08:34:57;;;;;;;1.25;1.15;;;;;;;;;;5025036;28;20154;-75
2023/03/15 08:37:23;;;;;;;1.38;0.93;;;;;;;;;;5026643;28;20502;-75
2023/03/15 08:39:56;;;;;;;0.82;0.82;;;;;;;;;;5027017;28;20206;-74
2023/03/15 08:42:23;;;;;;;0.80;0.80;;;;;;;;;;5026264;28;20037;-75
2023/03/15 08:44:49;;;;;;;0.57;0.57;;;;;;;;;;5025148;28;20120;-75
2023/03/15 08:47:14;;;;;;;1.52;1.38;;;;;;;;;;5025110;28;20022;-75
2023/03/15 08:49:40;;;;;;;1.30;1.20;;;;;;;;;;5026819;28;20021;-75
2023/03/15 08:52:09;;;;;;;2.47;1.05;;;;;;;;;;5027708;28;20037;-75
2023/03/15 08:54:35;;;;;;;1.10;0.80;;;;;;;;;;5027370;28;20037;-75
2023/03/15 08:57:01;;;;;;;1.35;1.05;;;;;;;;;;5026531;28;20307;-76
2023/03/15 08:59:27;;;;;;;2.00;0.80;;;;;;;;;;5028012;28;20029;-75
2023/03/15 09:01:53;;;;;;;2.25;1.13;;;;;;;;;;5026581;28;20030;-75
2023/03/15 09:04:20;;;;;;;1.02;1.02;;;;;;;;;;5024765;28;20029;-75
2023/03/15 09:06:46;;;;;;;2.33;0.95;;;;;;;;;;5027016;28;20040;-74
2023/03/15 09:09:16;;;;;;;1.92;1.05;;;;;;;;;;5027348;28;20028;-74
2023/03/15 09:11:42;;;;;;;3.08;1.10;;;;;;;;;;5027189;28;20037;-76
2023/03/15 09:14:08;;;;;;;1.17;1.08;;;;;;;;;;5026170;28;20014;-76
2023/03/15 09:16:34;;;;;;;2.00;1.20;;;;;;;;;;5025307;28;20041;-75
2023/03/15 09:19:00;;;;;;;1.60;0.93;;;;;;;;;;5025097;28;20017;-76
2023/03/15 09:21:26;;;;;;;1.90;1.00;;;;;;;;;;5027643;28;20384;-75
2023/03/15 09:23:52;;;;;;;1.17;1.10;;;;;;;;;;5025810;28;20486;-75
2023/03/15 09:26:18;;;;;;;1.33;1.00;;;;;;;;;;5025932;28;20022;-75
2023/03/15 09:28:44;;;;;;;1.27;0.93;;;;;;;;;;5025859;28;20119;-75
2023/03/15 09:31:10;;;;;;;0.60;0.60;;;;;;;;;;5027368;28;20032;-75
2023/03/15 09:33:36;;;;;;;0.90;0.90;;;;;;;;;;5027978;28;20026;-75
2023/03/15 09:36:03;;;;;;;1.95;0.70;;;;;;;;;;5025977;28;20080;-75
2023/03/15 09:38:29;;;;;;;0.95;0.80;;;;;;;;;;5024831;28;20072;-75
2023/03/15 09:40:56;;;;;;;1.52;0.95;;;;;;;;;;5025083;28;20021;-75
2023/03/15 09:43:34;;;;;;;0.88;0.88;;;;;;;;;;5027640;28;20029;-74
2023/03/15 09:46:07;;;;;;;1.15;1.02;;;;;;;;;;5025462;28;20117;-75
2023/03/15 09:48:43;;;;;;;1.10;0.40;;;;;;;;;;5026333;28;20528;-76
2023/03/15 09:51:29;;;;;;;0.40;0.40;;;;;;;;;;5026990;28;20372;-75
2023/03/15 09:53:59;;;;;;;0.20;0.20;;;;;;;;;;5026269;28;20068;-75
2023/03/15 09:56:34;;;;;;;0.73;0.40;;;;;;;;;;5025945;28;20543;-74
2023/03/15 09:59:01;;;;;;;0.20;0.20;;;;;;;;;;5026859;28;20032;-75
2023/03/15 10:01:46;;;;;;;0.30;0.30;;;;;;;;;;5026331;28;20033;-74
2023/03/15 10:04:15;;;;;;;0.32;0.32;;;;;;;;;;5024131;28;20033;-74
2023/03/15 10:06:46;;;;;;;0.60;0.50;;;;;;;;;;5025656;28;20065;-74
2023/03/15 10:09:17;;;;;;;0.85;0.30;;;;;;;;;;5026116;28;20029;-75
2023/03/15 10:12:02;;;;;;;1.45;0.43;;;;;;;;;;5026871;28;20064;-74
2023/03/15 10:14:34;;;;;;;1.17;0.40;;;;;;;;;;5026614;28;20017;-75
2023/03/15 10:17:03;;;;;;;0.52;0.50;;;;;;;;;;5026109;28;20095;-74
2023/03/15 10:19:29;;;;;;;0.38;0.35;;;;;;;;;;5026613;28;20036;-74
2023/03/15 10:22:13;;;;;;;0.30;0.30;;;;;;;;;;5026216;28;20098;-76
2023/03/15 10:24:43;;;;;;;0.75;0.30;;;;;;;;;;5027185;28;20496;-74
2023/03/15 10:27:19;;;;;;;0.50;0.40;;;;;;;;;;5026545;28;20071;-74
2023/03/15 10:29:46;;;;;;;0.40;0.40;;;;;;;;;;5026160;28;20061;-74
2023/03/15 10:32:17;;;;;;;0.35;0.32;;;;;;;;;;5026554;28;20045;-74
2023/03/15 10:34:48;;;;;;;0.32;0.32;;;;;;;;;;5026529;28;20029;-74
2023/03/15 10:37:14;;;;;;;0.22;0.22;;;;;;;;;;5029482;28;20057;-75
2023/03/15 10:39:45;;;;;;;0.35;0.28;;;;;;;;;;5029132;28;20028;-75
2023/03/15 10:42:22;;;;;;;0.20;0.20;;;;;;;;;;5028516;28;20042;-74
2023/03/15 10:44:48;;;;;;;1.95;0.40;;;;;;;;;;5026242;28;20060;-74
2023/03/15 10:47:18;;;;;;;0.30;0.30;;;;;;;;;;5028971;28;20065;-74
2023/03/15 10:49:44;;;;;;;0.30;0.30;;;;;;;;;;5030383;28;20492;-74
2023/03/15 10:52:30;;;;;;;4.30;0.65;;;;;;;;;;5029575;28;20022;-74
2023/03/15 10:54:56;;;;;;;0.47;0.40;;;;;;;;;;5028324;28;20022;-74
2023/03/15 10:57:25;;;;;;;0.52;0.52;;;;;;;;;;5029173;28;20048;-74
2023/03/15 10:59:54;;;;;;;1.13;0.52;;;;;;;;;;5029816;28;20123;-75
2023/03/15 11:02:22;;;;;;;0.70;0.40;;;;;;;;;;5028122;28;20029;-74
2023/03/15 11:04:50;;;;;;;0.30;0.30;;;;;;;;;;5044571;28;20025;-74
2023/03/15 11:07:17;;;;;;;0.22;0.22;;;;;;;;;;5048693;28;20044;-74
2023/03/15 11:09:44;;;;;;;0.40;0.30;;;;;;;;;;5047801;28;20031;-74
2023/03/15 11:12:15;;;;;;;0.82;0.50;;;;;;;;;;5048421;28;20025;-74
2023/03/15 11:14:46;;;;;;;1.00;0.30;;;;;;;;;;5047796;28;20126;-76
2023/03/15 11:17:17;;;;;;;0.70;0.30;;;;;;;;;;5049123;28;20037;-76
2023/03/15 11:19:46;;;;;;;0.50;0.50;;;;;;;;;;5048789;28;20099;-75
2023/03/15 11:22:13;;;;;;;0.40;0.40;;;;;;;;;;5049879;28;20036;-75
2023/03/15 11:24:39;;;;;;;2.63;0.98;;;;;;;;;;5047164;28;20275;-74
2023/03/15 11:27:11;;;;;;;0.65;0.30;;;;;;;;;;5043143;28;20029;-74
2023/03/15 11:29:41;;;;;;;0.60;0.60;;;;;;;;;;5044656;28;20045;-73
2023/03/15 11:32:13;;;;;;;1.67;0.47;;;;;;;;;;5028608;28;20029;-74
2023/03/15 11:34:44;;;;;;;0.95;0.50;;;;;;;;;;5027229;28;20026;-74
2023/03/15 11:37:26;;;;;;;0.30;0.30;;;;;;;;;;5026713;28;20060;-75
2023/03/15 11:39:55;;;;;;;0.77;0.57;;;;;;;;;;5028855;28;20153;-75
2023/03/15 11:42:33;;;;;;;0.50;0.47;;;;;;;;;;5028542;28;20029;-73
2023/03/15 11:45:02;;;;;;;1.65;0.47;;;;;;;;;;5023848;28;20017;-75
2023/03/15 11:47:39;;;;;;;0.50;0.40;;;;;;;;;;5008587;28;20322;-74
2023/03/15 11:50:05;;;;;;;2.10;0.50;;;;;;;;;;5007091;28;20105;-74
2023/03/15 11:52:31;;;;;;;0.63;0.63;;;;;;;;;;5040786;28;20574;-74
2023/03/15 11:55:02;;;;;;;0.50;0.50;;;;;;;;;;5028045;28;20037;-74
2023/03/15 11:57:32;;;;;;;0.40;0.40;;;;;;;;;;5027655;28;20029;-74
2023/03/15 12:00:14;;;;;;;0.30;0.30;;;;;;;;;;5033755;28;20045;-74
2023/03/15 12:02:57;;;;;;;0.35;0.35;;;;;;;;;;5031364;28;20641;-74
2023/03/15 12:05:41;;;;;;;0.65;0.60;;;;;;;;;;5026853;28;20055;-75
2023/03/15 12:08:19;;;;;;;0.60;0.60;;;;;;;;;;5029029;28;20028;-75
2023/03/15 12:10:46;;;;;;;0.50;0.50;;;;;;;;;;5025384;28;20025;-74
2023/03/15 12:13:20;;;;;;;0.73;0.73;;;;;;;;;;5032546;28;20076;-74
2023/03/15 12:15:46;;;;;;;0.40;0.40;;;;;;;;;;5007467;28;20034;-74
2023/03/15 12:18:14;;;;;;;0.35;0.35;;;;;;;;;;5007814;28;20493;-74
2023/03/15 12:20:42;;;;;;;0.35;0.35;;;;;;;;;;5008892;28;20460;-75
2023/03/15 12:23:17;;;;;;;0.35;0.35;;;;;;;;;;5022304;28;20030;-75
2023/03/15 12:25:53;;;;;;;2.60;0.80;;;;;;;;;;5007123;28;20068;-74
2023/03/15 12:28:21;;;;;;;0.50;0.50;;;;;;;;;;5022286;28;20546;-73
2023/03/15 12:30:52;;;;;;;1.02;0.93;;;;;;;;;;5007676;28;20033;-74
2023/03/15 12:33:20;;;;;;;0.40;0.40;;;;;;;;;;5007554;28;20030;-75
2023/03/15 12:35:47;;;;;;;3.03;0.80;;;;;;;;;;5007138;28;20096;-74
2023/03/15 12:38:21;;;;;;;0.32;0.32;;;;;;;;;;5022486;28;20025;-74
2023/03/15 12:40:47;;;;;;;0.90;0.40;;;;;;;;;;5006154;28;20029;-74
2023/03/15 12:43:13;;;;;;;0.40;0.40;;;;;;;;;;5007958;28;20097;-74
2023/03/15 12:45:42;;;;;;;0.30;0.30;;;;;;;;;;5007802;28;20561;-75
2023/03/15 12:48:11;;;;;;;0.30;0.30;;;;;;;;;;5007456;28;20080;-74
2023/03/15 12:50:44;;;;;;;0.77;0.45;;;;;;;;;;5010627;28;20041;-74
2023/03/15 12:53:27;;;;;;;0.52;0.52;;;;;;;;;;5027825;28;20025;-75
2023/03/15 12:55:54;;;;;;;0.80;0.63;;;;;;;;;;5024116;28;20140;-75
2023/03/15 12:58:25;;;;;;;0.40;0.40;;;;;;;;;;5025301;28;20029;-75
2023/03/15 13:00:53;;;;;;;0.40;0.40;;;;;;;;;;5007694;28;20556;-74
2023/03/15 13:03:21;;;;;;;3.20;0.30;;;;;;;;;;5007013;28;20033;-75
2023/03/15 13:06:07;;;;;;;0.52;0.45;;;;;;;;;;5006472;28;20108;-73
2023/03/15 13:08:52;;;;;;;0.70;0.20;;;;;;;;;;5006679;28;20449;-73
2023/03/15 13:11:18;;;;;;;1.65;0.20;;;;;;;;;;5007257;28;20100;-76
2023/03/15 13:13:44;;;;;;;0.50;0.30;;;;;;;;;;5005649;28;20034;-75
2023/03/15 13:16:21;;;;;;;3.20;0.55;;;;;;;;;;5006420;28;20041;-74
2023/03/15 13:18:52;;;;;;;0.50;0.40;;;;;;;;;;5006626;28;20037;-75
2023/03/15 13:21:42;;;;;;;0.90;0.40;;;;;;;;;;5006523;28;20433;-76
2023/03/15 13:24:20;;;;;;;0.75;0.40;;;;;;;;;;5001470;28;20184;-77
2023/03/15 13:26:46;;;;;;;0.40;0.30;;;;;;;;;;5007151;28;20026;-74
2023/03/15 13:29:16;;;;;;;0.47;0.47;;;;;;;;;;5005555;28;20057;-75
2023/03/15 13:31:43;;;;;;;0.40;0.40;;;;;;;;;;5019108;28;20022;-76
2023/03/15 13:34:14;;;;;;;3.78;0.50;;;;;;;;;;5024531;28;20021;-76
2023/03/15 13:36:40;;;;;;;0.30;0.30;;;;;;;;;;5025684;28;20049;-76
2023/03/15 13:39:12;;;;;;;0.43;0.40;;;;;;;;;;5025907;28;20032;-74
2023/03/15 13:41:38;;;;;;;0.30;0.20;;;;;;;;;;5026651;28;20040;-74
2023/03/15 13:44:11;;;;;;;2.47;0.38;;;;;;;;;;5013832;28;20552;-76
2023/03/15 13:46:37;;;;;;;1.00;0.52;;;;;;;;;;5006336;28;20029;-75
2023/03/15 13:49:03;;;;;;;0.75;0.28;;;;;;;;;;5006558;28;20026;-76
2023/03/15 13:51:34;;;;;;;0.47;0.40;;;;;;;;;;5015335;28;20417;-76
2023/03/15 13:54:11;;;;;;;0.50;0.50;;;;;;;;;;5027166;28;20049;-74
2023/03/15 13:56:41;;;;;;;0.20;0.20;;;;;;;;;;5030477;28;20117;-74
2023/03/15 13:59:08;;;;;;;0.50;0.30;;;;;;;;;;5030261;28;20049;-73
2023/03/15 14:01:37;;;;;;;0.45;0.43;;;;;;;;;;5027164;28;20025;-74
2023/03/15 14:04:08;;;;;;;0.38;0.35;;;;;;;;;;5028478;28;20025;-77
2023/03/15 14:06:34;;;;;;;0.63;0.60;;;;;;;;;;5024854;28;20300;-75
2023/03/15 14:09:06;;;;;;;1.00;0.40;;;;;;;;;;5029243;28;20021;-74
2023/03/15 14:11:36;;;;;;;1.35;0.50;;;;;;;;;;5027532;28;20032;-74
2023/03/15 14:14:13;;;;;;;1.27;0.60;;;;;;;;;;5030399;28;20025;-74
2023/03/15 14:16:43;;;;;;;0.45;0.45;;;;;;;;;;5030113;28;20030;-74
2023/03/15 14:19:15;;;;;;;2.05;0.40;;;;;;;;;;5029830;28;20237;-74
2023/03/15 14:21:48;;;;;;;1.25;0.40;;;;;;;;;;5029250;28;20029;-75
2023/03/15 14:24:33;;;;;;;0.63;0.32;;;;;;;;;;5029515;28;20472;-75
2023/03/15 14:27:01;;;;;;;0.98;0.47;;;;;;;;;;5031161;28;20489;-74
2023/03/15 14:29:27;;;;;;;1.08;0.38;;;;;;;;;;5031895;28;20072;-74
2023/03/15 14:31:53;;;;;;;0.55;0.50;;;;;;;;;;5032171;28;20458;-74
2023/03/15 14:34:32;;;;;;;0.47;0.30;;;;;;;;;;5031474;28;20584;-75
2023/03/15 14:37:00;;;;;;;0.57;0.30;;;;;;;;;;5031975;28;20067;-76
2023/03/15 14:39:40;;;;;;;1.45;0.60;;;;;;;;;;5032953;28;20025;-75
2023/03/15 14:42:06;;;;;;;2.50;0.30;;;;;;;;;;5032167;28;20029;-75
2023/03/15 14:44:32;;;;;;;0.70;0.30;;;;;;;;;;5032377;28;20481;-74
2023/03/15 14:46:59;;;;;;;1.17;0.30;;;;;;;;;;5032258;28;20074;-74
2023/03/15 14:49:26;;;;;;;0.70;0.30;;;;;;;;;;5031232;28;20112;-74